createdAt,value
2022-09-30T00:01:21.923Z,100683.66
2022-09-30T00:03:49.397Z,100687.13
2022-09-30T00:06:16.194Z,100684.44
2022-09-30T00:08:43.469Z,100683.28
2022-09-30T00:11:17.705Z,100683.88
2022-09-30T00:13:47.457Z,100686.47
2022-09-30T00:16:15.668Z,100682.31
2022-09-30T00:18:44.085Z,100671.59
2022-09-30T00:21:12.369Z,100680.00
2022-09-30T00:23:40.681Z,100672.50
2022-09-30T00:26:12.175Z,100679.28
2022-09-30T00:28:40.343Z,100675.81
2022-09-30T00:31:15.321Z,100674.66
2022-09-30T00:33:43.213Z,100673.03
2022-09-30T00:36:11.110Z,100678.22
2022-09-30T00:38:37.899Z,100673.84
2022-09-30T00:41:04.817Z,100679.81
2022-09-30T00:43:46.648Z,100684.47
2022-09-30T00:46:42.468Z,100690.53
2022-09-30T00:49:15.948Z,100696.25
2022-09-30T00:51:47.495Z,100700.72
2022-09-30T00:54:20.920Z,100703.47
2022-09-30T00:56:52.466Z,100704.81
2022-09-30T00:59:24.197Z,100703.00
2022-09-30T01:01:51.984Z,100701.41
2022-09-30T01:04:24.702Z,100704.28
2022-09-30T01:06:52.192Z,100701.63
2022-09-30T01:09:20.105Z,100702.31
2022-09-30T01:11:48.221Z,100703.13
2022-09-30T01:14:20.121Z,100700.38
2022-09-30T01:17:06.490Z,100702.19
2022-09-30T01:19:58.974Z,100704.38
2022-09-30T01:22:31.660Z,100711.69
2022-09-30T01:25:22.792Z,100708.31
2022-09-30T01:28:16.844Z,100714.53
2022-09-30T01:30:55.792Z,100702.44
2022-09-30T01:33:22.493Z,100696.00
2022-09-30T01:36:18.117Z,100702.78
2022-09-30T01:39:14.238Z,100707.00
2022-09-30T01:41:54.511Z,100701.31
2022-09-30T01:44:49.741Z,100698.16
2022-09-30T01:47:33.908Z,100700.38
2022-09-30T01:50:12.293Z,100694.44
2022-09-30T01:52:56.702Z,100693.31
2022-09-30T01:55:43.223Z,100700.72
2022-09-30T01:58:20.042Z,100703.38
2022-09-30T02:00:52.504Z,100716.47
2022-09-30T02:03:28.975Z,100706.44
2022-09-30T02:06:02.466Z,100710.69
2022-09-30T02:08:49.450Z,100715.00
2022-09-30T02:11:22.505Z,100707.69
2022-09-30T02:13:56.891Z,100725.88
2022-09-30T02:16:34.837Z,100725.34
2022-09-30T02:19:11.372Z,100726.34
2022-09-30T02:21:41.842Z,100722.13
2022-09-30T02:24:12.862Z,100713.75
2022-09-30T02:26:43.829Z,100721.31
2022-09-30T02:29:31.245Z,100720.97
2022-09-30T02:32:06.139Z,100713.63
2022-09-30T02:34:37.911Z,100719.44
2022-09-30T02:37:16.999Z,100725.16
2022-09-30T02:40:12.151Z,100732.63
2022-09-30T02:42:41.578Z,100728.97
2022-09-30T02:45:12.164Z,100729.41
2022-09-30T02:48:12.967Z,100725.31
2022-09-30T02:50:48.937Z,100732.22
2022-09-30T02:53:21.737Z,100733.81
2022-09-30T02:56:15.116Z,100735.66
2022-09-30T02:58:43.545Z,100728.34
2022-09-30T03:01:14.304Z,100728.97
2022-09-30T03:03:55.275Z,100737.19
2022-09-30T03:06:23.437Z,100730.69
2022-09-30T03:08:52.989Z,100735.34
2022-09-30T03:11:25.872Z,100728.03
2022-09-30T03:14:01.634Z,100739.16
2022-09-30T03:16:43.514Z,100735.03
2022-09-30T03:19:42.302Z,100741.81
2022-09-30T03:22:30.313Z,100735.66
2022-09-30T03:25:11.250Z,100740.28
2022-09-30T03:28:05.472Z,100742.19
2022-09-30T03:30:37.206Z,100745.81
2022-09-30T03:33:25.275Z,100750.28
2022-09-30T03:36:04.502Z,100747.97
2022-09-30T03:38:34.296Z,100749.09
2022-09-30T03:41:16.673Z,100746.88
2022-09-30T03:43:51.173Z,100745.13
2022-09-30T03:46:24.061Z,100748.88
2022-09-30T03:48:55.771Z,100752.97
2022-09-30T03:51:25.014Z,100754.56
2022-09-30T03:53:53.332Z,100757.81
2022-09-30T03:56:31.813Z,100767.38
2022-09-30T03:58:59.040Z,100756.78
2022-09-30T04:01:25.904Z,100755.22
2022-09-30T04:03:54.107Z,100761.25
2022-09-30T04:06:23.537Z,100762.72
2022-09-30T04:08:50.813Z,100755.44
2022-09-30T04:11:17.945Z,100756.94
2022-09-30T04:13:44.758Z,100760.97
2022-09-30T04:16:11.559Z,100759.88
2022-09-30T04:18:39.285Z,100754.81
2022-09-30T04:21:11.670Z,100764.34
2022-09-30T04:23:40.325Z,100770.41
2022-09-30T04:26:10.311Z,100766.66
2022-09-30T04:28:37.045Z,100767.97
2022-09-30T04:31:05.496Z,100772.56
2022-09-30T04:33:32.616Z,100774.28
2022-09-30T04:36:00.692Z,100777.66
2022-09-30T04:38:28.067Z,100779.44
2022-09-30T04:40:55.825Z,100782.25
2022-09-30T04:43:23.375Z,100778.06
2022-09-30T04:45:52.690Z,100779.19
2022-09-30T04:48:22.185Z,100787.41
2022-09-30T04:50:49.701Z,100780.91
2022-09-30T04:53:17.821Z,100794.53
2022-09-30T04:55:45.858Z,100792.22
2022-09-30T04:58:13.418Z,100799.31
2022-09-30T05:00:40.423Z,100802.81
2022-09-30T05:03:07.219Z,100805.88
2022-09-30T05:05:34.652Z,100812.34
2022-09-30T05:08:05.274Z,100803.09
2022-09-30T05:10:32.715Z,100802.53
2022-09-30T05:12:59.511Z,100794.91
2022-09-30T05:15:26.832Z,100800.91
2022-09-30T05:17:53.979Z,100799.13
2022-09-30T05:20:21.608Z,100809.16
2022-09-30T05:22:54.350Z,100806.06
2022-09-30T05:25:21.232Z,100807.03
2022-09-30T05:27:50.058Z,100809.84
2022-09-30T05:30:17.409Z,100808.63
2022-09-30T05:32:44.260Z,100815.53
2022-09-30T05:35:12.161Z,100816.41
2022-09-30T05:37:39.042Z,100822.66
2022-09-30T05:40:07.505Z,100816.41
2022-09-30T05:42:35.999Z,100816.09
2022-09-30T05:45:06.737Z,100817.19
2022-09-30T05:47:34.195Z,100816.16
2022-09-30T05:50:01.062Z,100829.69
2022-09-30T05:52:28.339Z,100830.47
2022-09-30T05:54:56.389Z,100828.88
2022-09-30T05:57:23.225Z,100832.16
2022-09-30T05:59:50.967Z,100836.81
2022-09-30T06:02:17.903Z,100831.06
2022-09-30T06:04:44.758Z,100842.59
2022-09-30T06:07:11.553Z,100838.28
2022-09-30T06:09:38.416Z,100835.03
2022-09-30T06:12:06.282Z,100830.69
2022-09-30T06:14:33.126Z,100839.66
2022-09-30T06:17:03.156Z,100842.97
2022-09-30T06:19:30.942Z,100835.63
2022-09-30T06:21:58.586Z,100842.47
2022-09-30T06:24:26.218Z,100842.97
2022-09-30T06:26:53.074Z,100849.75
2022-09-30T06:29:19.910Z,100849.50
2022-09-30T06:31:46.761Z,100843.47
2022-09-30T06:34:13.714Z,100858.94
2022-09-30T06:36:40.467Z,100845.28
2022-09-30T06:39:10.287Z,100848.81
2022-09-30T06:41:43.578Z,100844.38
2022-09-30T06:44:11.273Z,100852.34
2022-09-30T06:46:50.540Z,100852.38
2022-09-30T06:49:20.313Z,100845.59
2022-09-30T06:51:47.030Z,100859.88
2022-09-30T06:54:13.923Z,100863.94
2022-09-30T06:56:40.730Z,100866.97
2022-09-30T06:59:07.661Z,100865.81
2022-09-30T07:01:34.535Z,100866.75
2022-09-30T07:04:07.956Z,100868.13
2022-09-30T07:06:35.197Z,100852.91
2022-09-30T07:09:02.085Z,100849.09
2022-09-30T07:11:28.983Z,100852.41
2022-09-30T07:13:55.949Z,100852.97
2022-09-30T07:16:22.900Z,100849.91
2022-09-30T07:18:49.740Z,100852.66
2022-09-30T07:21:16.855Z,100852.38
2022-09-30T07:23:48.545Z,100856.00
2022-09-30T07:26:18.035Z,100856.53
2022-09-30T07:28:45.404Z,100854.31
2022-09-30T07:31:34.164Z,100852.34
2022-09-30T07:34:07.326Z,100845.19
2022-09-30T07:36:37.113Z,100848.13
2022-09-30T07:39:08.311Z,100845.63
2022-09-30T07:41:38.127Z,100852.53
2022-09-30T07:44:07.286Z,100844.91
2022-09-30T07:46:39.020Z,100847.78
2022-09-30T07:49:08.753Z,100850.38
2022-09-30T07:51:39.698Z,100850.22
2022-09-30T07:54:16.633Z,100859.72
2022-09-30T07:57:09.218Z,100849.84
2022-09-30T07:59:34.799Z,100851.06
2022-09-30T08:02:01.945Z,100852.91
2022-09-30T08:04:30.075Z,100856.44
2022-09-30T08:07:02.287Z,100850.63
2022-09-30T08:09:30.989Z,100841.88
2022-09-30T08:11:58.297Z,100850.91
2022-09-30T08:14:27.718Z,100852.25
2022-09-30T08:16:56.820Z,100853.56
2022-09-30T08:19:25.173Z,100856.50
2022-09-30T08:21:54.098Z,100854.44
2022-09-30T08:24:22.140Z,100856.31
2022-09-30T08:26:49.160Z,100854.81
2022-09-30T08:29:20.625Z,100855.88
2022-09-30T08:31:52.707Z,100853.84
2022-09-30T08:34:19.834Z,100851.81
2022-09-30T08:36:46.730Z,100851.69
2022-09-30T08:39:13.746Z,100846.09
2022-09-30T08:42:19.046Z,100842.31
2022-09-30T08:44:52.488Z,100843.19
2022-09-30T08:47:47.694Z,100841.66
2022-09-30T08:50:39.320Z,100838.06
2022-09-30T08:53:11.854Z,100838.06
2022-09-30T08:55:43.121Z,100845.16
2022-09-30T08:58:35.877Z,100834.25
2022-09-30T09:01:16.162Z,100829.69
2022-09-30T09:03:43.316Z,100836.06
2022-09-30T09:06:25.399Z,100828.22
2022-09-30T09:09:13.643Z,100847.03
2022-09-30T09:11:43.503Z,100844.28
2022-09-30T09:14:36.232Z,100844.66
2022-09-30T09:18:21.366Z,100839.22
2022-09-30T09:20:54.506Z,100837.47
2022-09-30T09:23:22.186Z,100839.53
2022-09-30T09:25:53.130Z,100843.75
2022-09-30T09:28:42.357Z,100845.50
2022-09-30T09:31:17.428Z,100843.22
2022-09-30T09:33:44.338Z,100849.22
2022-09-30T09:36:28.720Z,100857.03
2022-09-30T09:39:22.773Z,100861.69
2022-09-30T09:42:01.276Z,100857.44
2022-09-30T09:44:52.030Z,100859.34
2022-09-30T09:47:19.720Z,100864.19
2022-09-30T09:49:57.506Z,100868.69
2022-09-30T09:52:30.705Z,100858.50
2022-09-30T09:54:57.536Z,100854.22
2022-09-30T09:57:27.887Z,100853.09
2022-09-30T09:59:56.544Z,100844.31
2022-09-30T10:02:25.336Z,100859.34
2022-09-30T10:05:00.132Z,100849.19
2022-09-30T10:07:33.593Z,100849.44
2022-09-30T10:10:20.938Z,100848.47
2022-09-30T10:12:50.089Z,100842.00
2022-09-30T10:15:24.868Z,100842.25
2022-09-30T10:17:57.315Z,100850.06
2022-09-30T10:20:31.082Z,100849.16
2022-09-30T10:23:20.059Z,100848.75
2022-09-30T10:26:00.904Z,100842.03
2022-09-30T10:28:31.012Z,100840.78
2022-09-30T10:31:14.455Z,100842.31
2022-09-30T10:33:46.460Z,100853.78
2022-09-30T10:36:21.644Z,100842.13
2022-09-30T10:39:02.664Z,100850.38
2022-09-30T10:41:34.662Z,100838.63
2022-09-30T10:44:05.195Z,100853.50
2022-09-30T10:46:40.099Z,100843.19
2022-09-30T10:49:22.089Z,100843.25
2022-09-30T10:51:49.010Z,100842.00
2022-09-30T10:54:40.664Z,100838.75
2022-09-30T10:57:23.514Z,100841.97
2022-09-30T10:59:54.800Z,100836.88
2022-09-30T11:02:45.401Z,100837.19
2022-09-30T11:05:27.686Z,100825.94
2022-09-30T11:08:02.536Z,100826.66
2022-09-30T11:10:41.705Z,100831.41
2022-09-30T11:13:31.631Z,100833.16
2022-09-30T11:16:05.521Z,100833.28
2022-09-30T11:18:59.374Z,100826.66
2022-09-30T11:21:35.457Z,100829.41
2022-09-30T11:24:14.481Z,100830.00
2022-09-30T11:27:07.306Z,100832.63
2022-09-30T11:29:44.776Z,100821.41
2022-09-30T11:32:20.437Z,100813.81
2022-09-30T11:35:16.336Z,100823.84
2022-09-30T11:38:01.475Z,100810.75
2022-09-30T11:40:35.807Z,100818.13
2022-09-30T11:43:25.313Z,100806.69
2022-09-30T11:45:54.898Z,100805.56
2022-09-30T11:48:21.686Z,100803.38
2022-09-30T11:50:57.497Z,100807.22
2022-09-30T11:53:35.280Z,100795.97
2022-09-30T11:56:20.097Z,100794.56
2022-09-30T11:58:51.064Z,100800.59
2022-09-30T12:01:30.301Z,100794.72
2022-09-30T12:04:06.593Z,100800.69
2022-09-30T12:06:40.788Z,100795.81
2022-09-30T12:09:29.089Z,100792.91
2022-09-30T12:12:12.415Z,100783.19
2022-09-30T12:14:47.255Z,100787.66
2022-09-30T12:17:31.336Z,100781.31
2022-09-30T12:20:22.044Z,100779.16
2022-09-30T12:22:51.621Z,100771.19
2022-09-30T12:25:28.529Z,100767.78
2022-09-30T12:28:34.470Z,100768.91
2022-09-30T12:31:43.024Z,100764.72
2022-09-30T12:34:48.327Z,100762.13
2022-09-30T12:37:33.888Z,100761.84
2022-09-30T12:40:20.994Z,100764.13
2022-09-30T12:43:04.552Z,100759.91
2022-09-30T12:45:55.105Z,100760.41
2022-09-30T12:48:26.675Z,100748.38
2022-09-30T12:50:57.961Z,100748.84
2022-09-30T12:53:37.596Z,100746.41
2022-09-30T12:56:14.536Z,100743.63
2022-09-30T12:58:48.591Z,100746.59
2022-09-30T13:01:30.318Z,100738.94
2022-09-30T13:03:57.221Z,100741.13
2022-09-30T13:06:24.218Z,100735.41
2022-09-30T13:08:57.143Z,100747.34
2022-09-30T13:12:05.644Z,100740.19
2022-09-30T13:14:39.503Z,100730.72
2022-09-30T13:17:10.224Z,100734.31
2022-09-30T13:19:42.937Z,100730.91
2022-09-30T13:22:21.888Z,100726.41
2022-09-30T13:24:57.918Z,100723.59
2022-09-30T13:27:45.683Z,100716.78
2022-09-30T13:30:18.033Z,100721.19
2022-09-30T13:33:04.826Z,100726.88
2022-09-30T13:35:37.567Z,100732.19
2022-09-30T13:38:10.310Z,100726.03
2022-09-30T13:41:04.252Z,100714.34
2022-09-30T13:43:48.439Z,100721.19
2022-09-30T13:46:24.776Z,100715.25
2022-09-30T13:48:57.057Z,100718.78
2022-09-30T13:51:27.638Z,100699.72
2022-09-30T13:54:00.488Z,100711.44
2022-09-30T13:56:34.581Z,100715.81
2022-09-30T13:59:19.848Z,100709.09
2022-09-30T14:01:47.119Z,100712.38
2022-09-30T14:04:40.876Z,100705.09
2022-09-30T14:07:32.138Z,100704.50
2022-09-30T14:10:20.171Z,100704.94
2022-09-30T14:13:05.943Z,100702.63
2022-09-30T14:16:01.805Z,100700.56
2022-09-30T14:18:28.935Z,100700.56
2022-09-30T14:21:10.894Z,100695.88
2022-09-30T14:23:38.264Z,100701.25
2022-09-30T14:26:17.249Z,100698.94
2022-09-30T14:28:53.555Z,100693.38
2022-09-30T14:31:20.485Z,100693.13
2022-09-30T14:33:50.043Z,100692.09
2022-09-30T14:36:19.992Z,100683.34
2022-09-30T14:38:52.239Z,100671.38
2022-09-30T14:41:23.994Z,100679.03
2022-09-30T14:43:56.750Z,100683.56
2022-09-30T14:46:34.950Z,100680.13
2022-09-30T14:49:06.811Z,100669.25
2022-09-30T14:51:47.852Z,100674.16
2022-09-30T14:54:18.751Z,100667.69
2022-09-30T14:56:45.758Z,100666.50
2022-09-30T14:59:27.039Z,100659.66
2022-09-30T15:02:15.589Z,100653.19
2022-09-30T15:04:50.949Z,100655.47
2022-09-30T15:07:18.229Z,100656.03
2022-09-30T15:09:47.504Z,100659.72
2022-09-30T15:12:18.096Z,100655.38
2022-09-30T15:14:47.544Z,100654.25
2022-09-30T15:17:19.547Z,100641.25
2022-09-30T15:19:46.719Z,100652.06
2022-09-30T15:22:14.766Z,100648.03
2022-09-30T15:24:42.418Z,100644.44
2022-09-30T15:27:26.070Z,100645.31
2022-09-30T15:30:03.823Z,100643.16
2022-09-30T15:32:35.607Z,100649.81
2022-09-30T15:35:07.869Z,100641.66
2022-09-30T15:37:34.913Z,100658.13
2022-09-30T15:40:21.271Z,100657.78
2022-09-30T15:42:56.642Z,100654.03
2022-09-30T15:45:40.713Z,100657.97
2022-09-30T15:48:33.469Z,100662.75
2022-09-30T15:51:01.335Z,100660.13
2022-09-30T15:53:46.032Z,100665.59
2022-09-30T15:56:22.975Z,100655.22
2022-09-30T15:59:06.128Z,100654.81
2022-09-30T16:01:52.690Z,100662.50
2022-09-30T16:04:19.496Z,100658.47
2022-09-30T16:07:07.750Z,100665.81
2022-09-30T16:09:38.311Z,100663.72
2022-09-30T16:12:13.872Z,100658.84
2022-09-30T16:15:01.307Z,100666.44
2022-09-30T16:17:32.578Z,100668.34
2022-09-30T16:20:01.726Z,100661.13
2022-09-30T16:22:41.197Z,100658.53
2022-09-30T16:25:20.007Z,100663.84
2022-09-30T16:27:47.301Z,100659.94
2022-09-30T16:30:18.996Z,100657.69
2022-09-30T16:32:49.464Z,100656.75
2022-09-30T16:35:19.868Z,100660.00
2022-09-30T16:37:48.358Z,100654.00
2022-09-30T16:40:19.199Z,100653.34
2022-09-30T16:42:45.976Z,100655.09
2022-09-30T16:45:15.058Z,100648.41
2022-09-30T16:47:43.639Z,100655.00
2022-09-30T16:50:37.068Z,100650.13
2022-09-30T16:53:03.859Z,100653.22
2022-09-30T16:55:31.312Z,100646.63
2022-09-30T16:57:59.289Z,100642.47
2022-09-30T17:00:27.243Z,100642.13
2022-09-30T17:02:54.570Z,100630.28
2022-09-30T17:05:24.041Z,100634.34
2022-09-30T17:07:56.762Z,100632.94
2022-09-30T17:10:28.931Z,100623.59
2022-09-30T17:13:00.102Z,100624.56
2022-09-30T17:15:28.900Z,100622.53
2022-09-30T17:17:56.073Z,100619.63
2022-09-30T17:20:23.531Z,100621.94
2022-09-30T17:22:50.479Z,100617.94
2022-09-30T17:25:17.982Z,100618.91
2022-09-30T17:27:48.973Z,100621.78
2022-09-30T17:30:16.797Z,100613.84
2022-09-30T17:32:44.457Z,100619.63
2022-09-30T17:35:12.068Z,100616.59
2022-09-30T17:37:42.528Z,100610.75
2022-09-30T17:40:30.963Z,100614.72
2022-09-30T17:43:13.094Z,100617.19
2022-09-30T17:45:42.903Z,100612.38
2022-09-30T17:48:11.333Z,100600.41
2022-09-30T17:50:42.294Z,100605.91
2022-09-30T17:53:09.184Z,100603.66
2022-09-30T17:55:36.009Z,100599.16
2022-09-30T17:58:03.337Z,100592.28
2022-09-30T18:00:31.450Z,100601.59
2022-09-30T18:02:58.317Z,100596.91
2022-09-30T18:05:25.767Z,100589.78
2022-09-30T18:07:52.862Z,100601.25
2022-09-30T18:10:20.311Z,100594.19
2022-09-30T18:12:49.374Z,100591.66
2022-09-30T18:15:16.948Z,100599.69
2022-09-30T18:17:44.694Z,100593.94
2022-09-30T18:20:12.577Z,100592.50
2022-09-30T18:22:39.388Z,100596.53
2022-09-30T18:25:23.090Z,100595.84
2022-09-30T18:27:51.458Z,100589.41
2022-09-30T18:30:21.792Z,100592.56
2022-09-30T18:32:53.807Z,100587.63
2022-09-30T18:35:24.384Z,100583.94
2022-09-30T18:37:52.784Z,100574.13
2022-09-30T18:40:23.966Z,100566.78
2022-09-30T18:42:59.390Z,100569.63
2022-09-30T18:45:27.424Z,100570.88
2022-09-30T18:47:59.541Z,100565.81
2022-09-30T18:50:28.385Z,100553.63
2022-09-30T18:52:56.357Z,100546.31
2022-09-30T18:55:23.850Z,100550.38
2022-09-30T18:57:54.377Z,100537.22
2022-09-30T19:00:21.186Z,100531.81
2022-09-30T19:02:47.969Z,100537.59
2022-09-30T19:05:16.722Z,100527.84
2022-09-30T19:07:43.952Z,100523.28
2022-09-30T19:10:13.154Z,100515.53
2022-09-30T19:12:44.579Z,100513.00
2022-09-30T19:15:16.767Z,100514.34
2022-09-30T19:17:44.639Z,100505.16
2022-09-30T19:20:12.764Z,100503.69
2022-09-30T19:22:39.574Z,100504.09
2022-09-30T19:25:12.658Z,100498.97
2022-09-30T19:27:41.276Z,100493.59
2022-09-30T19:30:13.754Z,100490.69
2022-09-30T19:32:41.113Z,100487.31
2022-09-30T19:35:10.437Z,100485.00
2022-09-30T19:37:38.152Z,100482.13
2022-09-30T19:40:19.523Z,100478.00
2022-09-30T19:42:49.499Z,100474.19
2022-09-30T19:45:17.229Z,100470.06
2022-09-30T19:47:44.751Z,100471.97
2022-09-30T19:50:11.618Z,100466.31
2022-09-30T19:52:50.618Z,100461.72
2022-09-30T19:55:20.540Z,100458.09
2022-09-30T19:57:47.386Z,100458.38
2022-09-30T20:00:14.207Z,100447.28
2022-09-30T20:02:41.198Z,100437.84
2022-09-30T20:05:08.736Z,100441.13
2022-09-30T20:07:35.514Z,100435.81
2022-09-30T20:10:02.458Z,100430.31
2022-09-30T20:12:29.389Z,100430.06
2022-09-30T20:15:14.675Z,100414.00
2022-09-30T20:17:41.537Z,100418.56
2022-09-30T20:20:27.359Z,100416.25
2022-09-30T20:22:54.226Z,100405.97
2022-09-30T20:25:21.057Z,100401.66
2022-09-30T20:27:52.181Z,100400.91
2022-09-30T20:30:20.307Z,100390.47
2022-09-30T20:32:47.127Z,100392.38
2022-09-30T20:35:14.049Z,100385.00
2022-09-30T20:37:42.190Z,100386.38
2022-09-30T20:40:09.692Z,100387.00
2022-09-30T20:42:38.440Z,100382.66
2022-09-30T20:45:12.441Z,100387.94
2022-09-30T20:47:42.258Z,100379.28
2022-09-30T20:50:10.419Z,100378.41
2022-09-30T20:52:37.312Z,100368.03
2022-09-30T20:55:05.996Z,100374.88
2022-09-30T20:57:32.766Z,100373.09
2022-09-30T21:00:00.184Z,100370.88
2022-09-30T21:02:28.161Z,100369.44
2022-09-30T21:04:57.679Z,100359.50
2022-09-30T21:07:25.374Z,100362.47
2022-09-30T21:09:52.399Z,100362.44
2022-09-30T21:12:19.396Z,100355.69
2022-09-30T21:14:46.260Z,100351.06
2022-09-30T21:17:13.141Z,100354.91
2022-09-30T21:19:40.075Z,100341.84
2022-09-30T21:22:07.360Z,100339.53
2022-09-30T21:24:34.169Z,100343.31
2022-09-30T21:27:01.694Z,100335.78
2022-09-30T21:29:30.688Z,100335.00
2022-09-30T21:31:57.864Z,100342.66
2022-09-30T21:34:24.841Z,100345.94
2022-09-30T21:36:51.650Z,100336.66
2022-09-30T21:39:18.417Z,100333.22
2022-09-30T21:41:45.462Z,100339.41
2022-09-30T21:44:12.271Z,100335.13
2022-09-30T21:46:39.077Z,100327.97
2022-09-30T21:49:08.015Z,100328.03
2022-09-30T21:51:35.401Z,100319.66
2022-09-30T21:54:03.003Z,100321.78
2022-09-30T21:56:30.030Z,100319.09
2022-09-30T21:58:57.189Z,100313.28
2022-09-30T22:01:24.290Z,100316.22
2022-09-30T22:03:51.215Z,100312.94
2022-09-30T22:06:18.895Z,100314.19
2022-09-30T22:08:45.706Z,100300.84
2022-09-30T22:11:21.406Z,100305.38
2022-09-30T22:13:48.550Z,100302.31
2022-09-30T22:16:15.841Z,100292.88
2022-09-30T22:18:43.319Z,100307.66
2022-09-30T22:21:13.391Z,100307.72
2022-09-30T22:23:41.014Z,100304.91
2022-09-30T22:26:14.033Z,100305.50
2022-09-30T22:28:40.954Z,100302.56
2022-09-30T22:31:19.423Z,100299.38
2022-09-30T22:34:10.271Z,100302.06
2022-09-30T22:36:56.009Z,100298.78
2022-09-30T22:39:23.876Z,100302.47
2022-09-30T22:41:55.452Z,100308.28
2022-09-30T22:44:25.579Z,100314.13
2022-09-30T22:46:53.447Z,100309.06
2022-09-30T22:49:20.994Z,100310.13
2022-09-30T22:51:55.844Z,100302.63
2022-09-30T22:54:24.254Z,100303.22
2022-09-30T22:56:51.281Z,100305.81
2022-09-30T22:59:18.750Z,100295.84
2022-09-30T23:01:46.150Z,100299.38
2022-09-30T23:04:17.199Z,100278.66
2022-09-30T23:06:46.741Z,100293.72
2022-09-30T23:09:13.501Z,100278.50
2022-09-30T23:11:42.280Z,100277.22
2022-09-30T23:14:09.655Z,100273.69
2022-09-30T23:16:36.794Z,100264.66
2022-09-30T23:19:03.963Z,100266.66
2022-09-30T23:21:31.339Z,100263.25
2022-09-30T23:23:58.518Z,100262.78
2022-09-30T23:26:28.374Z,100255.78
2022-09-30T23:28:59.996Z,100249.84
2022-09-30T23:31:27.716Z,100238.09
2022-09-30T23:33:57.655Z,100239.16
2022-09-30T23:36:33.633Z,100216.78
2022-09-30T23:39:02.073Z,100214.09
2022-09-30T23:41:30.054Z,100210.50
2022-09-30T23:43:56.894Z,100209.91
2022-09-30T23:46:23.837Z,100203.34
2022-09-30T23:48:50.599Z,100195.41
2022-09-30T23:51:19.186Z,100195.94
2022-09-30T23:53:46.557Z,100187.44
2022-09-30T23:56:16.319Z,100187.88
2022-09-30T23:58:44.120Z,100171.44
